AirNav   TITAN Aviation Fuels
 
 725 users online  

4D1 Three Castles Airpark
Wonewoc, Wisconsin, USA

GOING TO WONEWOC?


FAA INFORMATION EFFECTIVE 20 MAY 2021

Location

FAA Identifier: 4D1
Lat/Long: 43-40-11.9060N 090-13-57.4600W
43-40.198433N 090-13.957667W
43.6699739,-90.2326278
(estimated)
Elevation: 921 ft. / 280.7 m (surveyed)
Variation: 01E (1985)
From city: 1 mile NW of WONEWOC, WI
Time zone: UTC -5 (UTC -6 during Standard Time)
Zip code: 53968

Airport Operations

Airport use: Open to the public
Activation date: 01/1947
Control tower: no
ARTCC: CHICAGO CENTER
FSS: GREEN BAY FLIGHT SERVICE STATION
NOTAMs facility: GRB (NOTAM-D service available)
Attendance: UNATNDD
Wind indicator: yes
Segmented circle: no

Airport Communications

CTAF: 122.9
WX AWOS-3 at 82C (11 nm N): 123.925 (608-562-6153)
WX AWOS-3PT at C35 (14 nm SE): 118.95 (608-768-0023)

Nearby radio navigation aids

VOR radial/distance  VOR name  Freq  Var
DLLr286/21.6DELLS VORTAC117.0003E

 
NDB name  Hdg/Dist  Freq  Var  ID
MCCOY132/23.941200ECMY -.-. -- -.--

Airport Services

Parking: tiedowns
Airframe service: NONE
Powerplant service: NONE
Bottled oxygen: NONE
Bulk oxygen: NONE

Runway Information

Runway 10/28

Dimensions: 2740 x 90 ft. / 835 x 27 m
Surface: turf, in good condition
RUNWAY 10  RUNWAY 28
Latitude: 43-40.264500N43-40.132333N
Longitude: 090-14.254667W090-13.660667W
Elevation: 920.0 ft.921.0 ft.
Traffic pattern: leftleft
Runway end identifier lights: nono
Obstructions: 25 ft. trees30 ft. trees, 75 ft. from runway, 100 ft. left of centerline, 3:1 slope to clear

Airport Ownership and Management from official FAA records

Ownership: Privately-owned
Owner: ARON MASHAK
281 GREEN WING DR
WINNECONNE, WI 54986
Phone (920) 312-6094
Manager: ARON MASHAK
281 GREEN WING DR
WINNECONNE, WI 54986
Phone (920) 312-6094
EMAIL ADDRESS: ARON@MASHAK.COM (ALL LOWER CASE)

Airport Operational Statistics

Aircraft based on the field: 10
Single engine airplanes: 8
Ultralights: 2
    
Aircraft operations: avg 21/week *
45% transient general aviation
45% local general aviation
9% military
* for 12-month period ending 21 August 2019

Additional Remarks

FOR CD CTC CHICAGO ARTCC AT 630-906-8921.

Instrument Procedures

There are no published instrument procedures at 4D1.

Some nearby airports with instrument procedures:

82C - Mauston-New Lisbon Union Airport (11 nm N)
C35 - Reedsburg Municipal Airport (14 nm SE)
KVOK - Volk Field Airport (16 nm N)
Y72 - Bloyer Field Airport (21 nm NW)
KDLL - Baraboo-Wisconsin Dells Regional Airport (22 nm SE)
 
Loc | Ops | Rwys | IFR | FBO | Links
Com | Nav | Svcs | Stats | Notes
Area around 4D1 (Three Castles Airpark)
 
Road maps at: MapQuest Bing Google
 
Aerial photo
No photo
 
Sectional chart

 
Airport distance calculator
Flying to Three Castles Airpark? Find the distance to fly.

From to 4D1

Sunrise and sunset
Times for 13-Jun-2021
 Local
(UTC-5)
 Zulu
(UTC)
Morning civil twilight04:4409:44
Sunrise05:2010:20
Sunset20:4201:42
Evening civil twilight21:1802:18

Current date and time
Zulu (UTC)  14-Jun-2021 04:01:54
Local (UTC-5)  13-Jun-2021 23:01:54
 
METAR
K82C 
11nm N 
140335Z AUTO 25004KT 10SM CLR 26/12 A2984 RMK AO2 T02580120
KC35 
14nm SE 
140335Z AUTO 21008KT 10SM BKN110 25/12 A2984 RMK AO2 T02490116 PWINO
KVOK 
15nm N 
140356Z AUTO 28009KT 10SM CLR 21/13 A2985 RMK AO2 SLP106 T02100127
TAF
KVOK 
15nm N 
131700Z 1317/1423 VRB06KT 9999 FEW120 QNH3002INS BECMG 1413/1414 34015G20KT 9999 FEW070 QNH2998INS BECMG 1422/1423 32008KT 9999 FEW055 SCT080 QNH2998INS TX30/1322Z TN16/1411Z LAST NO AMDS AFT 1323 NEXT 1409
NOTAMs
Click for the latest NOTAMs
NOTAMs are issued by the DoD/FAA and will open in a separate window not controlled by AirNav.

 

 
 

Would you like to see your business listed on this page?

 If your business provides an interesting product or service to pilots, flight crews, aircraft, or users of the Three Castles Airpark, you should consider listing it here.  To start the listing process, click on the button below
 
Add a business
 

Other Pages about Three Castles Airpark

Page from the Wisconsin airport directory (PDF)
 
Update a link
 
Copyright © AirNav, LLC. All rights reserved. Privacy Policy  Contact